createdAt,value
2018-12-27T06:49:26.781Z,0.00
2018-12-27T06:50:27.158Z,0.00
2018-12-27T06:51:27.110Z,0.00
2018-12-27T06:52:42.761Z,0.00
2018-12-27T06:58:39.429Z,0.00
2018-12-27T06:59:40.486Z,0.00
2018-12-27T07:00:40.415Z,0.00
2018-12-27T07:01:39.833Z,0.00
2018-12-27T07:02:39.815Z,0.00
2018-12-27T07:03:39.912Z,0.00
2018-12-27T07:05:40.325Z,0.00
2018-12-27T07:06:40.419Z,0.00
2018-12-27T07:07:39.673Z,0.00
2018-12-27T07:08:39.940Z,0.00
2018-12-27T07:09:39.076Z,0.00
2018-12-27T07:10:39.044Z,5.63
2018-12-27T07:11:39.423Z,5.63
2018-12-27T07:12:39.484Z,5.63
2018-12-27T07:13:39.384Z,5.63
2018-12-27T07:14:40.187Z,5.63
2018-12-27T07:15:39.379Z,11.25
2018-12-27T07:16:39.821Z,11.25
2018-12-27T07:17:40.032Z,11.25
2018-12-27T07:18:40.729Z,11.25
2018-12-27T07:19:40.272Z,11.25
2018-12-27T07:20:41.688Z,11.25
2018-12-27T07:21:41.856Z,16.88
2018-12-27T07:22:42.260Z,16.88
2018-12-27T07:24:02.899Z,16.88
2018-12-27T07:24:44.631Z,16.88
2018-12-27T07:25:46.741Z,16.88
2018-12-27T07:27:07.169Z,22.50
2018-12-27T07:27:49.336Z,22.50
2018-12-27T07:28:44.992Z,22.50
2018-12-27T07:35:54.006Z,39.38
2018-12-27T07:36:45.762Z,39.38
2018-12-27T07:39:15.842Z,50.63
2018-12-27T07:42:18.046Z,56.25
2018-12-27T07:44:09.664Z,61.88
2018-12-27T07:44:16.266Z,61.88
2018-12-27T07:45:01.504Z,61.88
2018-12-27T07:46:01.617Z,61.88
2018-12-27T07:49:17.111Z,67.50
2018-12-27T07:52:16.390Z,78.75
2018-12-27T07:53:13.803Z,78.75
2018-12-27T08:21:42.298Z,157.50
2018-12-27T08:52:45.116Z,270.00
2018-12-27T09:11:36.952Z,466.88
2018-12-27T09:14:27.182Z,388.13
2018-12-27T09:25:26.053Z,1659.38
2018-12-27T09:27:26.259Z,1198.13
2018-12-27T09:28:27.081Z,1299.38
2018-12-27T09:29:22.330Z,1181.25
2018-12-27T09:30:25.100Z,1012.50
2018-12-27T09:31:22.720Z,1451.25
2018-12-27T09:32:32.161Z,1749.38
2018-12-27T09:33:27.587Z,1406.25
2018-12-27T09:34:25.121Z,1248.75
2018-12-27T09:35:26.451Z,1445.63
2018-12-27T09:36:23.003Z,1580.63
2018-12-27T09:37:23.154Z,1535.63
2018-12-27T09:38:23.325Z,1468.13
2018-12-27T09:39:23.712Z,1681.88
2018-12-27T09:40:23.685Z,1715.63
2018-12-27T09:41:23.780Z,1282.50
2018-12-27T09:42:24.243Z,1383.75
2018-12-27T09:43:24.603Z,1631.25
2018-12-27T09:44:24.344Z,1710.00
2018-12-27T09:45:24.761Z,1558.13
2018-12-27T09:46:25.293Z,1513.13
2018-12-27T09:47:25.325Z,1518.75
2018-12-27T09:48:25.567Z,1608.75
2018-12-27T09:49:25.307Z,1485.00
2018-12-27T09:50:30.781Z,1344.38
2018-12-27T09:54:51.329Z,1608.75
2018-12-27T09:55:50.783Z,1608.75
2018-12-27T09:56:50.960Z,1546.88
2018-12-27T09:58:48.205Z,1625.63
2018-12-27T09:59:48.357Z,1563.75
2018-12-27T10:02:38.579Z,1119.38
2018-12-27T10:03:38.900Z,1091.25
2018-12-27T10:04:38.708Z,1119.38
2018-12-27T10:05:39.746Z,1147.50
2018-12-27T10:06:38.181Z,1158.75
2018-12-27T10:07:38.680Z,1068.75
2018-12-27T10:08:38.469Z,1175.63
2018-12-27T10:09:38.049Z,1333.13
2018-12-27T10:11:29.834Z,1327.50
2018-12-27T10:11:41.661Z,1293.75
2018-12-27T10:12:40.962Z,1344.38
2018-12-27T10:13:42.891Z,1344.38
2018-12-27T10:14:41.221Z,1293.75
2018-12-27T10:15:39.403Z,1265.63
2018-12-27T10:16:39.008Z,1192.50
2018-12-27T10:17:38.974Z,1231.88
2018-12-27T10:18:39.156Z,1254.38
2018-12-27T10:19:39.234Z,1231.88
2018-12-27T10:20:39.741Z,1203.75
2018-12-27T10:21:39.910Z,1321.88
2018-12-27T10:22:39.962Z,1473.75
2018-12-27T10:23:40.296Z,1434.38
2018-12-27T10:24:40.569Z,1451.25
2018-12-27T10:25:40.591Z,1445.63
2018-12-27T10:26:40.755Z,1608.75
2018-12-27T10:27:40.928Z,1597.50
2018-12-27T10:28:41.064Z,1513.13
2018-12-27T10:29:41.367Z,1485.00
2018-12-27T10:30:41.494Z,1468.13
2018-12-27T10:31:41.623Z,1411.88
2018-12-27T10:32:41.842Z,1563.75
2018-12-27T10:33:42.035Z,1597.50
2018-12-27T10:34:42.444Z,1636.88
2018-12-27T10:35:42.819Z,1530.00
2018-12-27T10:36:42.635Z,1693.13
2018-12-27T10:37:42.839Z,1850.63
2018-12-27T10:38:43.078Z,1991.25
2018-12-27T10:39:43.200Z,2115.00
2018-12-27T10:40:43.479Z,2041.88
2018-12-27T10:41:43.745Z,2019.38
2018-12-27T10:42:43.787Z,2103.75
2018-12-27T10:43:43.840Z,2188.13
2018-12-27T10:44:44.146Z,2160.00
2018-12-27T10:45:44.415Z,2103.75
2018-12-27T10:46:44.997Z,2047.50
2018-12-27T10:47:44.585Z,1996.88
2018-12-27T10:48:44.741Z,2272.50
2018-12-27T10:49:44.933Z,2306.25
2018-12-27T10:50:45.116Z,2328.75
2018-12-27T10:51:45.581Z,2255.63
2018-12-27T10:52:45.627Z,2182.50
2018-12-27T10:53:45.581Z,2266.88
2018-12-27T10:54:45.755Z,2266.88
2018-12-27T10:55:45.916Z,2165.63
2018-12-27T10:56:46.244Z,2058.75
2018-12-27T10:57:46.321Z,2300.63
2018-12-27T10:58:46.527Z,2306.25
2018-12-27T10:59:46.752Z,2041.88
2018-12-27T11:00:47.075Z,2233.13
2018-12-27T11:01:47.164Z,2587.50
2018-12-27T11:02:47.473Z,2514.38
2018-12-27T11:03:47.564Z,2430.00
2018-12-27T11:04:47.734Z,2306.25
2018-12-27T11:05:48.715Z,2362.50
2018-12-27T11:06:47.969Z,2323.13
2018-12-27T11:07:48.271Z,2244.38
2018-12-27T11:08:48.344Z,2373.75
2018-12-27T11:09:48.421Z,2233.13
2018-12-27T11:10:48.650Z,2396.25
2018-12-27T11:11:48.688Z,2458.13
2018-12-27T11:12:48.801Z,2452.50
2018-12-27T11:13:49.069Z,2632.50
2018-12-27T11:14:49.206Z,2565.00
2018-12-27T11:15:49.356Z,2632.50
2018-12-27T11:16:49.688Z,2671.88
2018-12-27T11:17:49.778Z,2660.63
2018-12-27T11:18:49.904Z,2891.25
2018-12-27T11:19:50.194Z,2958.75
2018-12-27T11:20:50.345Z,3020.63
2018-12-27T11:21:50.430Z,2998.13
2018-12-27T11:22:50.618Z,2536.88
2018-12-27T11:23:50.869Z,2998.13
2018-12-27T11:24:51.017Z,3009.38
2018-12-27T11:25:51.118Z,3003.75
2018-12-27T11:26:51.409Z,3088.13
2018-12-27T11:27:51.476Z,3031.88
2018-12-27T11:28:51.712Z,2975.63
2018-12-27T11:29:51.919Z,2953.13
2018-12-27T11:30:52.176Z,3003.75
2018-12-27T11:31:52.317Z,3031.88
2018-12-27T11:32:52.436Z,3026.25
2018-12-27T11:33:52.699Z,2913.75
2018-12-27T11:34:52.776Z,2953.13
2018-12-27T11:35:55.937Z,2970.00
2018-12-27T11:36:53.056Z,3043.13
2018-12-27T11:37:53.281Z,3138.75
2018-12-27T11:38:53.520Z,2784.38
2018-12-27T11:39:53.801Z,2863.13
2018-12-27T11:40:53.860Z,2880.00
2018-12-27T11:41:54.144Z,2975.63
2018-12-27T11:42:54.335Z,3026.25
2018-12-27T11:43:54.474Z,3031.88
2018-12-27T11:44:54.748Z,3037.50
2018-12-27T11:45:54.752Z,3110.63
2018-12-27T11:46:54.943Z,3060.00
2018-12-27T11:47:55.190Z,3043.13
2018-12-27T11:48:55.309Z,3037.50
2018-12-27T11:49:55.425Z,3195.00
2018-12-27T11:50:55.812Z,3206.25
2018-12-27T11:51:55.842Z,3043.13
2018-12-27T11:52:56.005Z,2475.00
2018-12-27T11:53:56.211Z,2840.63
2018-12-27T11:54:56.406Z,2981.25
2018-12-27T11:55:57.012Z,2953.13
2018-12-27T11:56:56.791Z,3043.13
2018-12-27T11:57:56.936Z,3037.50
2018-12-27T11:58:57.081Z,2823.75
2018-12-27T11:59:57.241Z,2626.88
2018-12-27T12:00:57.403Z,2621.25
2018-12-27T12:01:57.569Z,2559.38
2018-12-27T12:02:58.874Z,2700.00
2018-12-27T12:03:57.971Z,2553.75
2018-12-27T12:04:58.097Z,1845.00
2018-12-27T12:06:03.143Z,1698.75
2018-12-27T12:06:58.468Z,1850.63
2018-12-27T12:07:58.670Z,2098.13
2018-12-27T12:08:58.815Z,2295.00
2018-12-27T12:09:59.026Z,2373.75
2018-12-27T12:10:59.214Z,2295.00
2018-12-27T12:11:59.454Z,2385.00
2018-12-27T12:12:59.597Z,2407.50
2018-12-27T12:13:59.832Z,2458.13
2018-12-27T12:14:59.871Z,2317.50
2018-12-27T12:16:00.029Z,2165.63
2018-12-27T12:17:00.289Z,2255.63
2018-12-27T12:18:00.450Z,2413.13
2018-12-27T12:19:00.572Z,2643.75
2018-12-27T12:20:00.868Z,2525.63
2018-12-27T12:21:01.073Z,2334.38
2018-12-27T12:22:01.172Z,2486.25
2018-12-27T12:23:01.381Z,2700.00
2018-12-27T12:24:01.623Z,2666.25
2018-12-27T12:25:01.688Z,2795.63
2018-12-27T12:26:01.963Z,2581.88
2018-12-27T12:27:02.117Z,2739.38
2018-12-27T12:28:02.370Z,2368.13
2018-12-27T12:29:02.458Z,2435.63
2018-12-27T12:30:02.594Z,2379.38
2018-12-27T12:31:02.825Z,2401.88
2018-12-27T12:32:03.017Z,2441.25
2018-12-27T12:33:03.185Z,2475.00
2018-12-27T12:34:03.364Z,2340.00
2018-12-27T12:35:03.482Z,2441.25
2018-12-27T12:36:10.388Z,2221.88
2018-12-27T12:37:04.475Z,2115.00
2018-12-27T12:38:05.747Z,2036.25
2018-12-27T12:39:04.899Z,2030.63
2018-12-27T12:40:04.296Z,1867.50
2018-12-27T12:41:04.780Z,1710.00
2018-12-27T12:42:04.717Z,1721.25
2018-12-27T12:43:04.918Z,1546.88
2018-12-27T12:48:27.759Z,1501.88
2018-12-27T12:49:13.716Z,1524.38
2018-12-27T12:50:21.007Z,1603.13
2018-12-27T12:51:23.211Z,1665.00
2018-12-27T12:52:14.526Z,1861.88
2018-12-27T12:53:14.588Z,1940.63
2018-12-27T12:54:19.631Z,2058.75
2018-12-27T12:55:13.530Z,2047.50
2018-12-27T12:56:13.070Z,1929.38
2018-12-27T12:57:13.262Z,1738.13
2018-12-27T12:58:13.227Z,1822.50
2018-12-27T12:59:13.567Z,1980.00
2018-12-27T13:00:13.732Z,1991.25
2018-12-27T13:01:13.773Z,1895.63
2018-12-27T13:02:13.941Z,1839.38
2018-12-27T13:03:14.318Z,1698.75
2018-12-27T13:04:14.540Z,1681.88
2018-12-27T13:05:15.173Z,1636.88
2018-12-27T13:06:17.994Z,1642.50
2018-12-27T13:07:14.823Z,1541.25
2018-12-27T13:08:15.020Z,1355.63
2018-12-27T13:09:15.373Z,1282.50
2018-12-27T13:10:15.620Z,1293.75
2018-12-27T13:11:16.614Z,1254.38
2018-12-27T13:12:15.893Z,1130.63
2018-12-27T13:13:16.640Z,978.75
2018-12-27T13:14:16.895Z,849.38
2018-12-27T13:15:17.141Z,793.13
2018-12-27T13:18:47.103Z,573.75
2018-12-27T13:19:19.372Z,511.88
2018-12-27T13:29:47.179Z,298.13
2018-12-27T13:34:44.617Z,258.75
2018-12-27T13:37:47.968Z,247.50
2018-12-27T13:52:14.148Z,180.00
2018-12-27T13:53:13.789Z,174.38
2018-12-27T13:54:19.435Z,168.75
2018-12-27T15:04:24.140Z,16.88
2018-12-27T15:07:18.600Z,11.25
2018-12-27T15:17:50.866Z,5.63
2018-12-27T15:18:25.373Z,5.63
2018-12-27T16:25:16.595Z,0.00
2018-12-27T16:59:34.745Z,0.00
2018-12-27T17:00:34.851Z,0.00
2018-12-27T17:01:35.312Z,0.00
2018-12-27T17:02:35.243Z,0.00
2018-12-27T17:03:35.292Z,0.00
2018-12-27T17:04:35.699Z,0.00
2018-12-27T17:06:37.938Z,0.00
2018-12-27T17:07:36.995Z,0.00
2018-12-27T17:08:36.594Z,0.00
2018-12-27T17:09:36.909Z,0.00
2018-12-27T17:10:36.777Z,0.00
2018-12-27T17:11:37.269Z,0.00
2018-12-27T17:14:37.720Z,0.00
2018-12-27T17:16:37.753Z,0.00
2018-12-27T17:17:37.884Z,0.00
2018-12-27T17:18:38.426Z,0.00
2018-12-27T17:19:39.106Z,0.00
2018-12-27T18:34:21.677Z,0.00
2018-12-27T18:52:04.528Z,0.00
2018-12-27T18:53:05.665Z,0.00
2018-12-27T18:56:44.791Z,0.00
2018-12-27T18:57:44.704Z,0.00
2018-12-27T18:58:44.287Z,0.00
2018-12-27T19:05:50.836Z,0.00
2018-12-27T19:06:43.323Z,0.00
2018-12-27T19:07:50.375Z,0.00
2018-12-27T19:09:01.179Z,0.00
2018-12-27T19:09:43.750Z,0.00
2018-12-27T19:10:59.060Z,0.00
2018-12-27T19:11:55.107Z,0.00
2018-12-27T19:15:10.757Z,0.00
2018-12-27T19:16:11.119Z,0.00
2018-12-27T19:17:11.189Z,0.00
2018-12-27T19:19:11.589Z,0.00
2018-12-27T19:20:12.241Z,0.00
2018-12-27T19:21:12.311Z,0.00
2018-12-27T19:22:11.829Z,0.00
2018-12-27T19:23:12.936Z,0.00
2018-12-27T19:24:12.522Z,0.00
2018-12-27T19:25:11.554Z,0.00
2018-12-27T19:26:10.351Z,0.00
2018-12-27T19:27:10.905Z,0.00
2018-12-27T19:28:24.721Z,0.00
2018-12-27T19:33:32.563Z,0.00
2018-12-27T19:34:31.337Z,0.00
2018-12-27T20:02:50.393Z,0.00
2018-12-27T20:03:48.325Z,0.00
2018-12-27T20:04:48.407Z,0.00
2018-12-27T20:05:49.016Z,0.00
2018-12-27T20:06:58.343Z,0.00
2018-12-27T20:07:59.339Z,0.00
2018-12-27T20:09:51.279Z,0.00
2018-12-27T20:11:51.749Z,0.00
2018-12-27T20:12:55.341Z,0.00
2018-12-27T20:14:02.302Z,0.00
2018-12-27T20:14:50.794Z,0.00
2018-12-27T20:15:52.400Z,0.00
2018-12-27T20:16:50.526Z,0.00
2018-12-27T20:17:50.918Z,0.00
2018-12-27T20:19:09.251Z,0.00
2018-12-27T20:21:33.097Z,0.00
2018-12-27T20:22:03.757Z,0.00
2018-12-27T20:24:52.599Z,0.00
2018-12-27T20:25:30.877Z,0.00
2018-12-27T20:26:36.957Z,0.00
2018-12-27T20:27:26.317Z,0.00
2018-12-27T20:29:28.151Z,0.00
2018-12-27T20:30:28.482Z,0.00
2018-12-27T20:31:28.679Z,0.00
2018-12-27T20:34:48.711Z,0.00
2018-12-27T20:35:49.461Z,0.00
2018-12-27T20:36:49.454Z,0.00
2018-12-27T20:37:49.867Z,0.00
2018-12-27T20:38:48.053Z,0.00
2018-12-27T20:39:48.202Z,0.00
2018-12-27T20:40:47.767Z,0.00
2018-12-27T20:41:47.902Z,0.00
2018-12-27T20:42:48.514Z,0.00
2018-12-27T20:43:48.546Z,0.00
2018-12-27T20:44:49.145Z,0.00
2018-12-27T20:45:49.046Z,0.00
2018-12-27T20:46:49.151Z,0.00
2018-12-27T20:53:53.786Z,0.00
2018-12-27T20:55:51.233Z,0.00
2018-12-27T20:56:50.997Z,0.00
2018-12-27T20:58:26.011Z,0.00
2018-12-27T21:02:44.533Z,0.00
2018-12-27T21:22:52.369Z,0.00
2018-12-27T21:23:52.716Z,0.00
2018-12-27T21:24:53.708Z,0.00
2018-12-27T21:25:54.494Z,0.00
2018-12-27T21:26:55.798Z,0.00
2018-12-27T21:28:06.188Z,0.00
2018-12-27T21:28:55.794Z,0.00
2018-12-27T21:29:55.671Z,0.00
2018-12-27T21:30:54.161Z,0.00
2018-12-27T21:31:55.732Z,0.00
2018-12-27T21:32:54.659Z,0.00
2018-12-27T21:33:55.092Z,0.00
2018-12-27T21:34:54.827Z,0.00
2018-12-27T21:35:52.851Z,0.00
2018-12-27T21:36:53.017Z,0.00
2018-12-27T21:37:52.851Z,0.00
2018-12-27T21:38:53.077Z,0.00
2018-12-27T21:39:53.576Z,0.00
2018-12-27T21:40:53.606Z,0.00
2018-12-27T21:41:53.548Z,0.00
2018-12-27T21:42:54.907Z,0.00
2018-12-27T21:43:54.139Z,0.00
2018-12-27T21:44:54.045Z,0.00
2018-12-27T21:45:54.521Z,0.00
2018-12-27T21:48:35.148Z,0.00
2018-12-27T21:49:37.476Z,0.00
2018-12-27T21:50:39.518Z,0.00
2018-12-27T21:51:38.657Z,0.00
2018-12-27T21:52:41.424Z,0.00
2018-12-27T21:53:41.689Z,0.00
2018-12-27T21:54:38.238Z,0.00
2018-12-27T21:57:21.529Z,0.00
2018-12-27T21:58:22.695Z,0.00
2018-12-27T21:59:24.125Z,0.00
2018-12-27T22:00:27.832Z,0.00
2018-12-27T22:01:20.999Z,0.00
2018-12-27T22:02:22.339Z,0.00
2018-12-27T22:03:21.998Z,0.00
2018-12-27T22:04:21.992Z,0.00
2018-12-27T22:05:23.887Z,0.00
2018-12-27T22:06:20.411Z,0.00
2018-12-27T22:07:19.860Z,0.00
2018-12-27T22:08:20.599Z,0.00
2018-12-27T22:09:20.097Z,0.00
2018-12-27T22:10:20.124Z,0.00
2018-12-27T22:11:21.009Z,0.00
2018-12-27T22:12:20.822Z,0.00
2018-12-27T22:13:20.715Z,0.00
2018-12-27T22:14:20.972Z,0.00
2018-12-27T22:15:21.150Z,0.00
2018-12-27T22:16:21.504Z,0.00
2018-12-27T22:17:21.798Z,0.00
2018-12-27T22:18:21.746Z,0.00
2018-12-27T22:19:22.013Z,0.00
2018-12-27T22:20:21.735Z,0.00
2018-12-27T22:21:22.008Z,0.00
2018-12-27T22:22:22.142Z,0.00
2018-12-27T22:23:22.135Z,0.00
2018-12-27T22:24:22.546Z,0.00
2018-12-27T22:25:22.603Z,0.00
2018-12-27T22:26:22.774Z,0.00
2018-12-27T22:27:22.945Z,0.00
2018-12-27T22:28:23.128Z,0.00
2018-12-27T22:29:23.449Z,0.00
2018-12-27T22:30:23.799Z,0.00
2018-12-27T22:31:23.934Z,0.00
2018-12-27T22:32:23.990Z,0.00
2018-12-27T22:34:58.230Z,0.00
2018-12-27T22:35:59.046Z,0.00
2018-12-27T22:36:59.058Z,0.00
2018-12-27T22:37:58.651Z,0.00
2018-12-27T22:39:00.646Z,0.00
2018-12-27T22:39:59.566Z,0.00
2018-12-27T22:40:59.206Z,0.00
2018-12-27T22:41:57.288Z,0.00
2018-12-27T22:42:57.447Z,0.00
2018-12-27T22:43:57.534Z,0.00
2018-12-27T22:44:57.840Z,0.00
2018-12-27T22:45:57.789Z,0.00
2018-12-27T22:46:58.134Z,0.00
2018-12-27T22:47:58.288Z,0.00
2018-12-27T22:48:58.606Z,0.00
2018-12-27T22:49:59.462Z,0.00
